Arlington, MA (02474)

1:08 AM EDT on September 21, 2017 (GMT -0400)
Arlington Center | | Change Station
Active Advisory: Wind Advisory

Elev 43 ft 42.41 °N, 71.15 °W | Updated 30 seconds ago

Mostly Cloudy
Mostly Cloudy
70.5 °F
Feels Like 71 °F
N
3.0
Wind Variable Wind from NE
Gusts 5.0 mph

Today
High -- | Low -- °F
--% Chance of Precip.
Yesterday
High -- | Low -- °F
Precip. -- in
Pressure 29.94 in
Visibility 10.0 miles
Clouds Scattered Clouds 2500 ft
Mostly Cloudy 4000 ft
Heat Index 71 °F
Dew Point 64 °F
Humidity 79%
Rainfall 0.00 in
Snow Depth Not available.
6:31 AM 6:43 PM
New Moon, 1% visible
METAR KBED 210456Z AUTO 36008KT 10SM SCT025 BKN040 21/17 A2990 RMK AO2 SLP137 T02110172 402220183
Pressure 29.94 in
Visibility 10.0 miles
Clouds Scattered Clouds 2500 ft
Mostly Cloudy 4000 ft
Heat Index 71 °F
Dew Point 64 °F
Humidity 79%
Rainfall 0.00 in
Snow Depth Not available.
6:31 AM 6:43 PM
New Moon, 1% visible
METAR KBED 210456Z AUTO 36008KT 10SM SCT025 BKN040 21/17 A2990 RMK AO2 SLP137 T02110172 402220183

Get Your Daily Forecast Email!

Thanks for signing up!

Be on the lookout for a verification email in your inbox.

You'll start receiving severe weather alerts in your inbox..

×

10-Day Weather Forecast

Almanac

Astronomy

Sep. 21, 2017 Rise Set
Actual Time
Civil Twilight
Nautical Twilight
Astronomical Twilight
Moon
Length of Visible Light
Length of Day
Tomorrow will be .
, % of the Moon is Illuminated

Today's Extremes

State Highs State Lows

Community

WunderPhotos

Category 6

Welcome to Category 6. This is the collective home for Weather Underground's featured writeups by Dr. Jeff Masters (right), Bob Henson (left), Chris Burt, and other regular contributors.

Nearby

Air Quality

  Air Quality AQ Index Pollutant
Not available.

Snow Depth

Station Depth Elevation

Earthquake Activity

City Distance Mag. Time & Date
Minimum magnitude displayed is 2.5.

Coastal Water Temperatures

Place Temperature

Stations

Nearby Weather Stations

Station Location Temp. Windchill Dew Point Humidity Wind Precip. Elev Updated Type
                   

Watches & Warnings

Wind Advisory
Issued: 10:28 PM EDT Sep. 20, 2017 – National Weather Service

... Wind Advisory remains in effect until 6 am EDT Friday...

* location... eastern Massachusetts and most of Rhode Island.

* Winds... north 15 to 25 mph with gusts up to 50 mph.

* Timing... through Thursday night.

* Impacts... gusty winds will likely down tree limbs and possibly
isolated trees, especially since full foliage remains on our
trees. Isolated power outages may occur.

Precautionary/preparedness actions...

Winds this strong are capable of Downing tree limbs and branches,
possibly causing isolated power outages. Driving can also be
difficult, especially for high profile vehicles. Use extra
caution.



For the latest updates... please visit our webpage at
www.Weather.Gov/Boston

You can follow US on facebook at